Time;durP1;ratioP1;P1;durP2;ratioP2;P2;SDS_P1;SDS_P2;PMS_P1;PMS_P2;Temp;Humidity;BMP_temperature;BMP_pressure;BME280_temperature;BME280_humidity;BME280_pressure;Samples;Min_cycle;Max_cycle;Signal;HPM_P1;HPM_P2
2023/06/24 00:01:38;;;;;;;14.93;9.73;;;17.10;99.90;;;;;;5124987;27;20549;-56
2023/06/24 00:04:04;;;;;;;14.50;10.00;;;17.10;99.90;;;;;;5136543;27;20039;-56
2023/06/24 00:06:29;;;;;;;15.13;11.07;;;17.00;99.90;;;;;;5119040;27;20047;-56
2023/06/24 00:09:00;;;;;;;14.13;9.70;;;16.90;99.90;;;;;;5137161;27;20037;-56
2023/06/24 00:11:29;;;;;;;14.57;9.85;;;17.00;99.90;;;;;;5138059;27;20050;-56
2023/06/24 00:13:55;;;;;;;14.48;9.27;;;16.90;99.90;;;;;;5131641;27;20075;-56
2023/06/24 00:16:26;;;;;;;13.70;10.32;;;17.00;99.90;;;;;;5119918;27;20545;-56
2023/06/24 00:19:00;;;;;;;17.13;10.80;;;16.90;99.90;;;;;;5119907;27;20047;-55
2023/06/24 00:21:32;;;;;;;14.02;9.75;;;16.80;99.90;;;;;;5120591;27;20296;-56
2023/06/24 00:23:58;;;;;;;14.68;9.77;;;16.80;99.90;;;;;;5118239;27;20039;-56
2023/06/24 00:26:25;;;;;;;15.20;9.50;;;16.80;99.90;;;;;;5132648;27;20038;-56
2023/06/24 00:28:51;;;;;;;16.23;10.57;;;16.90;99.90;;;;;;5137703;27;20116;-56
2023/06/24 00:31:16;;;;;;;14.57;10.93;;;16.80;99.90;;;;;;5128659;27;20071;-56
2023/06/24 00:33:42;;;;;;;14.85;11.00;;;16.80;99.90;;;;;;5124220;27;20460;-56
2023/06/24 00:36:11;;;;;;;15.30;10.40;;;16.80;99.90;;;;;;5128940;27;20035;-56
2023/06/24 00:38:38;;;;;;;16.00;11.02;;;16.80;99.90;;;;;;5118911;27;20035;-56
2023/06/24 00:41:04;;;;;;;16.20;11.30;;;16.80;99.90;;;;;;5120027;27;20032;-56
2023/06/24 00:43:30;;;;;;;15.90;10.63;;;16.80;99.90;;;;;;5137555;27;20035;-56
2023/06/24 00:45:56;;;;;;;16.80;11.13;;;16.70;99.90;;;;;;5122411;27;20051;-54
2023/06/24 00:48:23;;;;;;;16.02;10.98;;;16.70;99.90;;;;;;5119959;27;20050;-56
2023/06/24 00:50:49;;;;;;;17.15;10.82;;;16.70;99.90;;;;;;5119391;27;20044;-55
2023/06/24 00:53:16;;;;;;;16.75;11.07;;;16.80;99.90;;;;;;5129003;27;20069;-56
2023/06/24 00:55:42;;;;;;;15.38;11.02;;;16.70;99.90;;;;;;5135744;27;20073;-56
2023/06/24 00:58:08;;;;;;;16.42;11.50;;;16.70;99.90;;;;;;5136930;27;20038;-56
2023/06/24 01:00:34;;;;;;;16.17;10.38;;;16.70;99.90;;;;;;5136583;27;20104;-56
2023/06/24 01:03:00;;;;;;;16.88;11.23;;;16.60;99.90;;;;;;5118325;27;20082;-54
2023/06/24 01:05:28;;;;;;;16.17;10.80;;;16.60;99.90;;;;;;5128885;27;20059;-56
2023/06/24 01:07:55;;;;;;;15.50;11.07;;;16.60;99.90;;;;;;5135387;27;20690;-56
2023/06/24 01:10:23;;;;;;;15.77;10.35;;;16.50;99.90;;;;;;5115800;27;20122;-56
2023/06/24 01:12:49;;;;;;;14.90;10.23;;;16.50;99.90;;;;;;5122450;27;20296;-56
2023/06/24 01:15:15;;;;;;;16.13;10.45;;;16.60;99.90;;;;;;5117927;27;20059;-56
2023/06/24 01:18:08;;;;;;;14.27;9.55;;;16.60;99.90;;;;;;5126041;27;20027;-57
2023/06/24 01:20:47;;;;;;;14.45;9.70;;;16.60;99.90;;;;;;5115897;27;20078;-56
2023/06/24 01:23:22;;;;;;;14.75;10.25;;;16.60;99.90;;;;;;5125020;27;20050;-56
2023/06/24 01:26:14;;;;;;;15.50;10.07;;;16.60;99.90;;;;;;5136672;27;20043;-56
2023/06/24 01:29:01;;;;;;;12.88;8.95;;;16.50;99.90;;;;;;5117119;27;20062;-56
2023/06/24 01:31:50;;;;;;;13.00;9.82;;;16.50;99.90;;;;;;5117557;27;20153;-57
2023/06/24 01:34:32;;;;;;;15.05;9.50;;;16.50;99.90;;;;;;5122124;27;20051;-56
2023/06/24 01:37:24;;;;;;;15.45;9.82;;;16.60;99.90;;;;;;5120481;28;20331;-56
2023/06/24 01:39:59;;;;;;;14.73;9.77;;;16.50;99.90;;;;;;5132246;27;20054;-56
2023/06/24 01:42:28;;;;;;;17.25;9.30;;;16.50;99.90;;;;;;5137063;28;20072;-56
2023/06/24 01:44:55;;;;;;;15.63;10.10;;;16.50;99.90;;;;;;5122747;27;20514;-56
2023/06/24 01:47:25;;;;;;;14.82;9.88;;;16.40;99.90;;;;;;5117831;28;20560;-56
2023/06/24 01:49:54;;;;;;;12.10;8.93;;;16.50;99.90;;;;;;5126191;28;20564;-56
2023/06/24 01:52:23;;;;;;;13.70;9.18;;;16.50;99.90;;;;;;5133226;28;20098;-56
2023/06/24 01:54:50;;;;;;;13.35;9.60;;;16.50;99.90;;;;;;5121031;28;20073;-55
2023/06/24 01:57:17;;;;;;;16.83;10.98;;;16.40;99.90;;;;;;5117079;28;20070;-56
2023/06/24 01:59:46;;;;;;;16.92;10.18;;;16.40;99.90;;;;;;5117925;28;20219;-56
2023/06/24 02:02:13;;;;;;;20.98;11.82;;;16.40;99.90;;;;;;5117492;28;20074;-56
2023/06/24 02:04:39;;;;;;;14.25;10.43;;;16.40;99.90;;;;;;5120290;28;20024;-56
2023/06/24 02:07:08;;;;;;;16.27;11.00;;;16.30;99.90;;;;;;5135606;28;20065;-56
2023/06/24 02:09:35;;;;;;;16.25;11.27;;;16.40;99.90;;;;;;5134907;27;20039;-56
2023/06/24 02:12:03;;;;;;;18.27;11.15;;;16.40;99.90;;;;;;5136467;27;20044;-56
2023/06/24 02:14:30;;;;;;;16.98;11.32;;;16.40;99.90;;;;;;5128680;27;20129;-56
2023/06/24 02:16:58;;;;;;;15.25;11.68;;;16.30;99.90;;;;;;5115084;28;20576;-56
2023/06/24 02:19:28;;;;;;;15.10;11.63;;;16.20;99.90;;;;;;5118874;28;20046;-56
2023/06/24 02:21:55;;;;;;;15.40;11.43;;;16.20;99.90;;;;;;5118361;28;20062;-57
2023/06/24 02:24:21;;;;;;;16.45;12.15;;;16.30;99.90;;;;;;5115445;28;20085;-56
2023/06/24 02:26:47;;;;;;;17.20;12.93;;;16.30;99.90;;;;;;5131736;27;20039;-56
2023/06/24 02:29:13;;;;;;;17.10;12.80;;;16.20;99.90;;;;;;5136480;28;20050;-56
2023/06/24 02:31:40;;;;;;;17.25;12.38;;;16.20;99.90;;;;;;5134303;27;20490;-56
2023/06/24 02:34:06;;;;;;;17.30;12.40;;;16.20;99.90;;;;;;5127144;27;20469;-55
2023/06/24 02:36:31;;;;;;;16.63;11.75;;;16.20;99.90;;;;;;5116976;28;20063;-56
2023/06/24 02:38:57;;;;;;;16.10;11.35;;;16.20;99.90;;;;;;5135698;28;20067;-56
2023/06/24 02:41:23;;;;;;;17.42;12.63;;;16.10;99.90;;;;;;5135553;27;20042;-55
2023/06/24 02:43:49;;;;;;;17.02;12.57;;;16.20;99.90;;;;;;5120290;28;20036;-56
2023/06/24 02:46:15;;;;;;;18.88;13.63;;;16.20;99.90;;;;;;5120496;27;20039;-56
2023/06/24 02:48:42;;;;;;;17.33;11.73;;;16.20;99.90;;;;;;5128133;27;20039;-56
2023/06/24 02:51:10;;;;;;;16.83;12.40;;;16.10;99.90;;;;;;5129710;27;20040;-56
2023/06/24 02:53:38;;;;;;;15.90;12.15;;;16.20;99.90;;;;;;5139987;27;20054;-56
2023/06/24 02:56:05;;;;;;;18.33;12.32;;;16.10;99.90;;;;;;5132496;27;20044;-56
2023/06/24 02:58:32;;;;;;;18.52;13.43;;;16.10;99.90;;;;;;5131705;27;20090;-57
2023/06/24 03:01:00;;;;;;;17.75;12.52;;;16.10;99.90;;;;;;5136838;27;20115;-56
2023/06/24 03:03:27;;;;;;;18.15;12.43;;;16.10;99.90;;;;;;5136495;27;20040;-55
2023/06/24 03:05:54;;;;;;;16.83;12.20;;;16.10;99.90;;;;;;5137256;27;20043;-55
2023/06/24 03:08:20;;;;;;;18.50;13.07;;;16.10;99.90;;;;;;5138309;27;20111;-56
2023/06/24 03:10:46;;;;;;;20.08;13.35;;;16.20;99.90;;;;;;5121726;27;20043;-56
2023/06/24 03:13:12;;;;;;;17.83;12.13;;;16.10;99.90;;;;;;5120581;27;20054;-56
2023/06/24 03:15:37;;;;;;;16.90;12.27;;;16.10;99.90;;;;;;5131192;27;20043;-56
2023/06/24 03:18:03;;;;;;;16.33;12.20;;;16.20;99.90;;;;;;5134698;27;20031;-55
2023/06/24 03:20:35;;;;;;;16.27;12.68;;;16.20;99.90;;;;;;5124108;27;20039;-56
2023/06/24 03:23:01;;;;;;;17.98;12.70;;;16.20;99.90;;;;;;5138657;27;20086;-56
2023/06/24 03:25:27;;;;;;;16.45;12.55;;;16.20;99.90;;;;;;5121789;27;20039;-56
2023/06/24 03:27:52;;;;;;;17.60;12.82;;;16.10;99.90;;;;;;5138789;27;20080;-56
2023/06/24 03:30:18;;;;;;;17.08;12.80;;;16.20;99.90;;;;;;5139016;27;20058;-56
2023/06/24 03:32:46;;;;;;;17.55;11.82;;;16.20;99.90;;;;;;5137224;27;20055;-57
2023/06/24 03:35:12;;;;;;;17.42;12.77;;;16.20;99.90;;;;;;5138175;27;20047;-56
2023/06/24 03:37:38;;;;;;;16.70;11.85;;;16.10;99.90;;;;;;5137961;27;20039;-54
2023/06/24 03:40:04;;;;;;;16.88;12.52;;;16.10;99.90;;;;;;5138289;27;20506;-56
2023/06/24 03:42:30;;;;;;;17.70;11.02;;;16.10;99.90;;;;;;5126831;27;20031;-56
2023/06/24 03:44:55;;;;;;;18.17;12.40;;;16.10;99.90;;;;;;5122088;27;20039;-56
2023/06/24 03:47:21;;;;;;;19.23;12.93;;;16.10;99.90;;;;;;5136907;27;20102;-55
2023/06/24 03:49:47;;;;;;;17.23;12.02;;;16.10;99.90;;;;;;5134592;27;20043;-56
2023/06/24 03:52:12;;;;;;;16.60;11.77;;;16.20;99.90;;;;;;5120215;27;20051;-56
2023/06/24 03:54:39;;;;;;;16.65;12.35;;;16.10;99.90;;;;;;5138082;27;20035;-56
2023/06/24 03:57:06;;;;;;;15.25;11.45;;;16.20;99.90;;;;;;5136096;27;20112;-56
2023/06/24 03:59:32;;;;;;;17.27;12.15;;;16.10;99.90;;;;;;5119024;27;20083;-56
2023/06/24 04:01:58;;;;;;;15.23;11.45;;;16.20;99.90;;;;;;5119508;27;20050;-55
2023/06/24 04:04:23;;;;;;;15.23;11.20;;;16.20;99.90;;;;;;5128667;27;20043;-56
2023/06/24 04:06:49;;;;;;;16.52;11.73;;;16.30;99.90;;;;;;5119474;27;20084;-57
2023/06/24 04:09:14;;;;;;;15.77;12.05;;;16.20;99.90;;;;;;5119670;27;20046;-56
2023/06/24 04:11:40;;;;;;;16.58;11.93;;;16.20;99.90;;;;;;5119478;27;20054;-56
2023/06/24 04:14:06;;;;;;;17.60;12.10;;;16.20;99.90;;;;;;5118932;27;20057;-56
2023/06/24 04:16:33;;;;;;;15.98;11.38;;;16.30;99.90;;;;;;5119516;27;20051;-56
2023/06/24 04:18:58;;;;;;;15.70;10.90;;;16.30;99.90;;;;;;5130103;27;20098;-56
2023/06/24 04:21:25;;;;;;;14.95;11.35;;;16.30;99.90;;;;;;5137966;27;20039;-56
2023/06/24 04:23:50;;;;;;;15.75;11.40;;;16.30;99.90;;;;;;5137295;27;20055;-56
2023/06/24 04:26:16;;;;;;;16.98;10.93;;;16.40;99.90;;;;;;5098545;28;20040;-56
2023/06/24 04:28:41;;;;;;;15.48;11.48;;;16.40;99.90;;;;;;5124321;27;20053;-56
2023/06/24 04:31:07;;;;;;;14.30;10.40;;;16.40;99.90;;;;;;5133628;27;20043;-57
2023/06/24 04:33:33;;;;;;;15.80;11.40;;;16.50;99.90;;;;;;5130580;27;20107;-56
2023/06/24 04:35:59;;;;;;;17.58;11.23;;;16.50;99.90;;;;;;5120847;27;20043;-56
2023/06/24 04:38:25;;;;;;;20.80;12.52;;;16.60;99.90;;;;;;5122074;27;20114;-57
2023/06/24 04:40:50;;;;;;;14.18;11.30;;;16.60;99.90;;;;;;5121933;27;20167;-56
2023/06/24 04:43:16;;;;;;;14.63;11.05;;;16.70;99.90;;;;;;5131784;27;20166;-56
2023/06/24 04:45:42;;;;;;;14.88;11.07;;;16.70;99.90;;;;;;5118725;27;20048;-55
2023/06/24 04:48:07;;;;;;;14.30;11.07;;;16.80;99.90;;;;;;5129546;27;20435;-56
2023/06/24 04:50:33;;;;;;;15.50;10.73;;;16.80;99.90;;;;;;5126593;27;20035;-56
2023/06/24 04:53:01;;;;;;;16.98;11.05;;;16.90;99.90;;;;;;5133355;27;20060;-56
2023/06/24 04:55:29;;;;;;;14.43;10.73;;;17.00;99.90;;;;;;5118649;28;20054;-57
2023/06/24 04:57:55;;;;;;;16.38;10.77;;;17.10;99.90;;;;;;5118855;28;20061;-58
2023/06/24 05:00:24;;;;;;;13.90;10.52;;;17.20;99.90;;;;;;5118480;28;20205;-56
2023/06/24 05:02:50;;;;;;;16.20;11.15;;;17.30;99.90;;;;;;5118642;28;20127;-56
2023/06/24 05:05:15;;;;;;;14.82;11.13;;;17.30;99.90;;;;;;5117199;28;20487;-57
2023/06/24 05:07:41;;;;;;;14.52;10.70;;;17.40;99.90;;;;;;5119703;27;20066;-56
2023/06/24 05:10:07;;;;;;;15.38;11.80;;;17.40;99.90;;;;;;5131094;27;20360;-56
2023/06/24 05:12:33;;;;;;;17.98;10.88;;;17.50;99.90;;;;;;5118965;28;20046;-57
2023/06/24 05:14:58;;;;;;;15.65;10.27;;;17.60;99.90;;;;;;5118422;28;20074;-56
2023/06/24 05:17:24;;;;;;;13.27;10.15;;;17.70;99.90;;;;;;5122217;27;20085;-56
2023/06/24 05:19:49;;;;;;;14.90;10.77;;;17.80;99.90;;;;;;5122367;27;20079;-57
2023/06/24 05:22:16;;;;;;;18.30;10.25;;;17.70;99.90;;;;;;5118683;28;20114;-56
2023/06/24 05:24:41;;;;;;;15.75;11.23;;;17.80;99.90;;;;;;5118210;28;20148;-57
2023/06/24 05:27:07;;;;;;;14.38;10.85;;;17.80;99.90;;;;;;5118346;28;20047;-56
2023/06/24 05:29:34;;;;;;;15.35;10.70;;;18.00;99.90;;;;;;5118575;28;20059;-56
2023/06/24 05:32:01;;;;;;;17.30;10.57;;;18.10;99.90;;;;;;5118271;28;20055;-56
2023/06/24 05:34:27;;;;;;;17.85;10.75;;;18.20;99.90;;;;;;5118282;28;20040;-56
2023/06/24 05:36:53;;;;;;;15.55;10.73;;;18.30;99.90;;;;;;5118110;28;20040;-57
2023/06/24 05:39:20;;;;;;;15.45;11.35;;;18.40;99.90;;;;;;5118512;28;20130;-57
2023/06/24 05:41:48;;;;;;;15.07;10.68;;;18.60;99.90;;;;;;5118408;28;20036;-56
2023/06/24 05:44:13;;;;;;;16.35;10.43;;;18.70;99.90;;;;;;5117689;28;20044;-55
2023/06/24 05:46:39;;;;;;;14.07;10.35;;;18.90;99.90;;;;;;5114817;28;20066;-57
2023/06/24 05:49:05;;;;;;;15.40;10.27;;;19.00;99.90;;;;;;5113551;28;20036;-54
2023/06/24 05:51:31;;;;;;;14.65;11.48;;;19.00;99.90;;;;;;5108291;28;20100;-59
2023/06/24 05:53:57;;;;;;;14.68;10.52;;;19.10;99.90;;;;;;5101188;28;20040;-57
2023/06/24 05:56:23;;;;;;;14.80;10.65;;;19.20;99.90;;;;;;5094513;28;20498;-61
2023/06/24 05:58:49;;;;;;;14.70;11.18;;;19.40;99.90;;;;;;5093890;28;20036;-57
2023/06/24 06:01:15;;;;;;;14.80;10.07;;;19.50;99.90;;;;;;5094276;28;20173;-57
2023/06/24 06:03:41;;;;;;;16.88;10.30;;;19.60;99.90;;;;;;5094821;28;20044;-57
2023/06/24 06:06:07;;;;;;;15.48;10.88;;;19.80;99.90;;;;;;5092887;28;20048;-56
2023/06/24 06:08:33;;;;;;;12.82;9.18;;;19.90;99.90;;;;;;5094432;28;20097;-56
2023/06/24 06:11:02;;;;;;;13.13;10.23;;;20.10;99.90;;;;;;5093954;28;20052;-57
2023/06/24 06:13:28;;;;;;;14.95;9.68;;;20.10;99.90;;;;;;5103892;28;20047;-57
2023/06/24 06:15:53;;;;;;;17.40;10.93;;;19.80;99.90;;;;;;5113166;28;20044;-56
2023/06/24 06:18:19;;;;;;;13.57;9.90;;;19.80;99.90;;;;;;5113243;28;20120;-56
2023/06/24 06:20:44;;;;;;;12.68;9.98;;;19.80;99.90;;;;;;5116415;28;20075;-56
2023/06/24 06:23:10;;;;;;;12.77;10.00;;;19.80;99.90;;;;;;5118281;28;20040;-57
2023/06/24 06:25:37;;;;;;;15.00;10.60;;;19.80;99.90;;;;;;5118566;28;20043;-56
2023/06/24 06:28:03;;;;;;;14.50;10.65;;;19.90;99.90;;;;;;5118167;28;20083;-56
2023/06/24 06:30:29;;;;;;;13.00;9.73;;;19.90;99.90;;;;;;5117167;28;20075;-57
2023/06/24 06:32:55;;;;;;;15.68;10.48;;;20.00;99.90;;;;;;5110499;28;20052;-56
2023/06/24 06:35:20;;;;;;;15.05;10.13;;;20.00;99.90;;;;;;5107259;28;20130;-56
2023/06/24 06:37:51;;;;;;;14.77;10.48;;;20.00;99.90;;;;;;5097921;28;20070;-56
2023/06/24 06:40:18;;;;;;;13.10;9.48;;;20.00;99.90;;;;;;5126063;27;20043;-56
2023/06/24 06:42:43;;;;;;;14.50;10.20;;;20.00;99.90;;;;;;5118604;27;20032;-56
2023/06/24 06:45:10;;;;;;;17.17;10.40;;;20.00;99.90;;;;;;5126791;27;20039;-56
2023/06/24 06:47:35;;;;;;;13.80;9.77;;;20.10;99.90;;;;;;5120850;27;20047;-57
2023/06/24 06:50:01;;;;;;;13.10;9.88;;;20.20;99.90;;;;;;5133592;27;20046;-57
2023/06/24 06:52:28;;;;;;;14.70;10.00;;;20.20;99.90;;;;;;5136008;27;20055;-58
2023/06/24 06:54:54;;;;;;;14.90;9.52;;;20.30;99.90;;;;;;5127769;27;20043;-57
2023/06/24 06:57:20;;;;;;;13.65;10.20;;;20.30;99.90;;;;;;5122601;27;20059;-57
2023/06/24 06:59:45;;;;;;;14.27;10.10;;;20.30;99.90;;;;;;5120072;27;20043;-58
2023/06/24 07:02:11;;;;;;;15.25;9.65;;;20.40;99.90;;;;;;5126391;27;20043;-57
2023/06/24 07:04:37;;;;;;;13.82;9.55;;;20.40;99.90;;;;;;5129238;27;20076;-57
2023/06/24 07:07:03;;;;;;;12.20;9.05;;;20.60;99.90;;;;;;5117437;27;20059;-58
2023/06/24 07:09:28;;;;;;;13.50;9.43;;;20.70;99.90;;;;;;5117243;28;20052;-58
2023/06/24 07:11:54;;;;;;;12.65;9.18;;;20.80;99.90;;;;;;5118013;28;20052;-58
2023/06/24 07:14:19;;;;;;;14.95;9.10;;;20.90;99.90;;;;;;5116349;28;20051;-57
2023/06/24 07:16:45;;;;;;;11.63;8.88;;;20.90;99.90;;;;;;5117574;28;20050;-58
2023/06/24 07:19:11;;;;;;;12.75;8.93;;;21.10;99.90;;;;;;5117576;28;20103;-57
2023/06/24 07:21:38;;;;;;;12.27;8.55;;;21.10;99.90;;;;;;5116835;28;20043;-56
2023/06/24 07:24:04;;;;;;;11.73;8.50;;;21.20;99.90;;;;;;5117055;28;20051;-57
2023/06/24 07:26:30;;;;;;;13.35;8.95;;;21.40;99.90;;;;;;5117345;28;20036;-57
2023/06/24 07:28:58;;;;;;;13.70;8.50;;;21.50;99.90;;;;;;5117521;28;20043;-57
2023/06/24 07:31:24;;;;;;;14.18;9.05;;;21.70;99.90;;;;;;5116763;28;20051;-56
2023/06/24 07:33:49;;;;;;;14.05;8.35;;;21.80;99.90;;;;;;5115985;28;20043;-57
2023/06/24 07:36:15;;;;;;;14.35;8.15;;;21.90;99.90;;;;;;5117099;28;20283;-56
2023/06/24 07:38:41;;;;;;;12.68;8.13;;;22.10;99.90;;;;;;5115792;28;20035;-57
2023/06/24 07:41:06;;;;;;;10.90;7.57;;;22.20;99.90;;;;;;5116817;28;20055;-56
2023/06/24 07:43:32;;;;;;;13.00;7.93;;;22.30;99.90;;;;;;5117156;28;20039;-57
2023/06/24 07:45:58;;;;;;;12.32;8.43;;;22.40;99.90;;;;;;5116637;28;20035;-56
2023/06/24 07:48:23;;;;;;;12.10;7.40;;;22.40;99.90;;;;;;5116902;28;20040;-57
2023/06/24 07:50:49;;;;;;;10.80;7.15;;;22.40;99.90;;;;;;5115402;28;20158;-57
2023/06/24 07:53:15;;;;;;;28.40;9.75;;;22.50;99.90;;;;;;5106448;28;20059;-57
2023/06/24 07:55:41;;;;;;;14.35;7.78;;;22.70;99.90;;;;;;5108467;28;20040;-57
2023/06/24 07:58:06;;;;;;;14.00;7.55;;;22.70;99.90;;;;;;5101377;28;20141;-57
2023/06/24 08:00:32;;;;;;;12.43;6.93;;;22.70;99.90;;;;;;5116545;28;20059;-57
2023/06/24 08:02:58;;;;;;;12.32;6.50;;;22.70;99.90;;;;;;5116549;28;20055;-56
2023/06/24 08:05:24;;;;;;;11.30;6.75;;;22.80;99.90;;;;;;5116511;28;20051;-57
2023/06/24 08:07:51;;;;;;;11.20;7.53;;;22.80;99.90;;;;;;5116586;28;20044;-57
2023/06/24 08:10:17;;;;;;;12.75;7.68;;;22.90;99.90;;;;;;5116230;28;20370;-57
2023/06/24 08:12:43;;;;;;;12.50;7.38;;;22.70;99.90;;;;;;5116253;28;20533;-57
2023/06/24 08:15:10;;;;;;;12.18;8.20;;;22.60;99.90;;;;;;5116359;28;20048;-57
2023/06/24 08:17:35;;;;;;;10.40;7.43;;;22.60;99.90;;;;;;5116528;28;20036;-57
2023/06/24 08:20:03;;;;;;;13.68;8.10;;;22.60;99.90;;;;;;5116096;28;20047;-57
2023/06/24 08:22:29;;;;;;;11.80;7.38;;;22.70;99.90;;;;;;5115649;28;20086;-56
2023/06/24 08:24:55;;;;;;;11.48;8.00;;;22.90;99.90;;;;;;5116631;28;20506;-57
2023/06/24 08:27:20;;;;;;;13.48;7.85;;;23.00;99.90;;;;;;5116300;28;20035;-57
2023/06/24 08:29:46;;;;;;;10.65;7.18;;;23.10;99.90;;;;;;5116318;28;20045;-57
2023/06/24 08:32:11;;;;;;;12.95;7.82;;;23.10;99.90;;;;;;5115888;28;20134;-57
2023/06/24 08:34:37;;;;;;;10.35;6.85;;;23.20;99.90;;;;;;5115595;28;20058;-57
2023/06/24 08:37:03;;;;;;;10.70;7.63;;;23.10;99.90;;;;;;5115492;28;20086;-57
2023/06/24 08:39:29;;;;;;;11.13;6.75;;;23.10;99.90;;;;;;5115945;28;20043;-57
2023/06/24 08:41:55;;;;;;;13.30;7.80;;;23.00;99.90;;;;;;5116188;28;20044;-57
2023/06/24 08:44:20;;;;;;;12.73;7.40;;;23.10;99.90;;;;;;5115264;28;20076;-57
2023/06/24 08:46:47;;;;;;;11.02;7.32;;;23.30;99.90;;;;;;5115718;28;20035;-57
2023/06/24 08:49:22;;;;;;;10.50;6.72;;;23.40;99.90;;;;;;5116032;28;20170;-57
2023/06/24 08:52:03;;;;;;;10.50;6.97;;;23.70;99.90;;;;;;5115528;28;20923;-58
2023/06/24 08:54:30;;;;;;;;;;;23.70;99.90;;;;;;5116385;28;20082;-58
2023/06/24 08:56:56;;;;;;;9.40;6.35;;;24.20;99.90;;;;;;5115199;28;20434;-57
2023/06/24 08:59:22;;;;;;;12.20;6.35;;;24.60;99.90;;;;;;5115953;28;20047;-57
2023/06/24 09:01:49;;;;;;;13.40;8.00;;;24.50;99.90;;;;;;5115536;28;20052;-57
2023/06/24 09:04:15;;;;;;;12.25;8.63;;;24.10;99.90;;;;;;5115181;28;20551;-58
2023/06/24 09:06:40;;;;;;;11.57;7.53;;;23.90;99.90;;;;;;5115233;28;20039;-58
2023/06/24 09:09:18;;;;;;;10.73;6.95;;;24.10;99.90;;;;;;5114867;28;20618;-58
2023/06/24 09:11:55;;;;;;;11.95;7.15;;;24.10;99.90;;;;;;5115300;28;20043;-57
2023/06/24 09:14:21;;;;;;;11.27;7.30;;;24.00;99.90;;;;;;5114735;28;20044;-57
2023/06/24 09:16:58;;;;;;;12.02;7.50;;;24.10;99.90;;;;;;5117239;27;20131;-57
2023/06/24 09:19:29;;;;;;;13.65;7.57;;;24.00;99.90;;;;;;5115518;27;20047;-58
2023/06/24 09:22:00;;;;;;;13.05;7.20;;;23.80;99.90;;;;;;5114902;28;20040;-57
2023/06/24 09:24:33;;;;;;;13.32;8.15;;;23.90;99.90;;;;;;5114976;28;20058;-57
2023/06/24 09:26:59;;;;;;;10.60;7.00;;;24.20;99.90;;;;;;5111574;28;20048;-57
2023/06/24 09:29:29;;;;;;;11.20;6.80;;;24.30;99.90;;;;;;5105079;28;20112;-58
2023/06/24 09:31:56;;;;;;;10.63;7.40;;;24.60;99.90;;;;;;5104664;28;20048;-57
2023/06/24 09:34:22;;;;;;;13.38;8.50;;;24.60;99.90;;;;;;5099957;28;20462;-57
2023/06/24 09:36:53;;;;;;;11.57;7.78;;;24.50;99.90;;;;;;5110590;28;20048;-58
2023/06/24 09:39:21;;;;;;;12.23;7.45;;;24.50;99.90;;;;;;5114857;28;20518;-57
2023/06/24 09:41:50;;;;;;;13.95;8.07;;;24.30;99.90;;;;;;5112884;28;20055;-58
2023/06/24 09:44:16;;;;;;;11.05;6.60;;;24.30;99.90;;;;;;5109946;28;20104;-57
2023/06/24 09:46:43;;;;;;;9.70;7.00;;;24.60;99.90;;;;;;5112141;28;20043;-57
2023/06/24 09:49:09;;;;;;;11.48;7.30;;;24.60;99.90;;;;;;5103212;28;20048;-57
2023/06/24 09:51:38;;;;;;;12.88;7.47;;;24.60;99.90;;;;;;5106133;28;20103;-57
2023/06/24 09:54:08;;;;;;;12.43;7.93;;;24.70;99.90;;;;;;5108420;28;20101;-58
2023/06/24 09:56:39;;;;;;;13.60;7.63;;;24.70;99.90;;;;;;5114579;28;20647;-57
2023/06/24 09:59:06;;;;;;;12.30;7.40;;;24.60;99.90;;;;;;5116238;28;20039;-57
2023/06/24 10:01:38;;;;;;;11.70;6.70;;;24.80;99.90;;;;;;5110593;28;20047;-58
2023/06/24 10:04:07;;;;;;;11.60;7.47;;;24.80;99.90;;;;;;5113616;28;20571;-57
2023/06/24 10:06:34;;;;;;;10.82;7.22;;;25.00;99.90;;;;;;5115520;28;20160;-57
2023/06/24 10:09:01;;;;;;;12.38;6.47;;;25.20;99.90;;;;;;5115397;28;20040;-56
2023/06/24 10:11:27;;;;;;;9.65;5.35;;;25.20;99.90;;;;;;5118630;28;20103;-57
2023/06/24 10:13:53;;;;;;;10.90;6.40;;;25.40;99.90;;;;;;5118287;28;20078;-57
2023/06/24 10:16:19;;;;;;;11.95;6.53;;;25.40;99.90;;;;;;5118978;28;20044;-57
2023/06/24 10:18:46;;;;;;;10.65;7.07;;;25.50;99.90;;;;;;5118329;28;20790;-57
2023/06/24 10:21:14;;;;;;;12.43;7.28;;;25.30;99.30;;;;;;5118180;28;20098;-57
2023/06/24 10:23:53;;;;;;;12.15;6.93;;;25.20;99.40;;;;;;5118172;28;20039;-57
2023/06/24 10:26:28;;;;;;;12.70;6.70;;;25.20;99.40;;;;;;5111347;28;20054;-57
2023/06/24 10:29:06;;;;;;;10.90;6.57;;;25.30;99.90;;;;;;5108445;28;20136;-57
2023/06/24 10:31:43;;;;;;;12.13;7.00;;;25.50;99.70;;;;;;5100676;28;20087;-57
2023/06/24 10:34:28;;;;;;;9.77;6.38;;;25.50;99.30;;;;;;5103964;28;20051;-57
2023/06/24 10:36:58;;;;;;;9.30;5.50;;;25.60;98.50;;;;;;5104682;28;20055;-57
2023/06/24 10:39:50;;;;;;;9.45;5.95;;;25.60;98.30;;;;;;5117481;28;20040;-57
2023/06/24 10:42:28;;;;;;;9.82;6.07;;;25.50;98.40;;;;;;5117313;28;20100;-57
2023/06/24 10:45:20;;;;;;;11.07;6.00;;;25.60;98.20;;;;;;5115470;28;20056;-57
2023/06/24 10:47:52;;;;;;;8.65;4.85;;;25.80;97.60;;;;;;5116979;28;20114;-57
2023/06/24 10:50:22;;;;;;;9.15;5.75;;;26.20;98.90;;;;;;5117820;28;20054;-57
2023/06/24 10:52:50;;;;;;;10.30;6.10;;;26.10;99.10;;;;;;5117558;28;20039;-57
2023/06/24 10:55:16;;;;;;;11.18;6.53;;;26.00;98.70;;;;;;5108973;28;20220;-56
2023/06/24 10:57:43;;;;;;;9.23;5.20;;;25.70;99.30;;;;;;5103821;28;20095;-57
2023/06/24 11:00:10;;;;;;;11.70;5.53;;;25.80;98.40;;;;;;5104623;28;20106;-57
2023/06/24 11:02:36;;;;;;;9.75;5.13;;;25.60;97.80;;;;;;5097390;28;21013;-59
2023/06/24 11:05:04;;;;;;;9.73;5.38;;;25.70;98.90;;;;;;5102525;28;20036;-57
2023/06/24 11:07:35;;;;;;;9.18;4.00;;;25.70;99.50;;;;;;5107770;28;20055;-58
2023/06/24 11:10:07;;;;;;;8.13;4.40;;;25.50;99.30;;;;;;5105949;28;20071;-57
2023/06/24 11:12:35;;;;;;;8.13;4.32;;;25.70;98.70;;;;;;5110908;28;20848;-59
2023/06/24 11:15:06;;;;;;;8.43;4.90;;;26.10;97.90;;;;;;5104874;28;20479;-58
2023/06/24 11:17:35;;;;;;;7.60;3.95;;;26.20;96.40;;;;;;5112462;28;20513;-58
2023/06/24 11:20:06;;;;;;;7.07;4.07;;;26.10;96.60;;;;;;5107181;28;20438;-57
2023/06/24 11:22:31;;;;;;;8.63;4.28;;;25.90;96.30;;;;;;5116869;28;20052;-57
2023/06/24 11:24:57;;;;;;;7.15;4.28;;;25.60;96.00;;;;;;5117377;28;20076;-57
2023/06/24 11:27:27;;;;;;;8.10;3.80;;;25.50;95.50;;;;;;5116929;28;20043;-57
2023/06/24 11:29:55;;;;;;;7.47;3.72;;;25.90;95.30;;;;;;5117293;28;20043;-58
2023/06/24 11:32:21;;;;;;;7.07;3.70;;;26.00;94.80;;;;;;5130615;27;20138;-57
2023/06/24 11:34:47;;;;;;;7.40;4.07;;;26.00;94.10;;;;;;5120759;27;20074;-58
2023/06/24 11:37:18;;;;;;;7.32;3.85;;;26.40;94.70;;;;;;5123619;27;20059;-57
2023/06/24 11:39:44;;;;;;;9.87;4.20;;;26.50;94.00;;;;;;5116928;27;20058;-57
2023/06/24 11:42:11;;;;;;;7.50;3.63;;;26.80;94.10;;;;;;5107545;28;20046;-57
2023/06/24 11:44:44;;;;;;;8.45;3.60;;;27.00;94.30;;;;;;5112469;27;20105;-58
2023/06/24 11:47:12;;;;;;;7.60;3.83;;;26.60;92.80;;;;;;5116413;28;20135;-57
2023/06/24 11:49:52;;;;;;;7.20;3.72;;;26.90;93.60;;;;;;5108795;28;20050;-57
2023/06/24 11:52:18;;;;;;;6.35;3.38;;;27.10;93.70;;;;;;5098184;28;20132;-58
2023/06/24 11:54:43;;;;;;;8.10;3.97;;;27.20;92.80;;;;;;5113700;28;20892;-56
2023/06/24 11:57:09;;;;;;;8.05;4.00;;;27.10;93.80;;;;;;5115900;28;20056;-57
2023/06/24 11:59:35;;;;;;;16.08;4.68;;;27.30;92.40;;;;;;5116159;28;20047;-58
2023/06/24 12:02:03;;;;;;;7.75;3.53;;;26.90;93.50;;;;;;5115887;28;20913;-57
2023/06/24 12:04:30;;;;;;;9.82;4.18;;;27.10;94.10;;;;;;5114257;28;20067;-57
2023/06/24 12:06:57;;;;;;;7.25;3.67;;;27.50;93.90;;;;;;5116356;28;20061;-57
2023/06/24 12:09:23;;;;;;;7.63;3.58;;;27.50;93.30;;;;;;5111932;28;20499;-58
2023/06/24 12:11:49;;;;;;;6.18;3.47;;;27.10;92.20;;;;;;5115353;28;20051;-57
2023/06/24 12:14:14;;;;;;;7.03;3.80;;;27.20;92.10;;;;;;5114280;28;20040;-57
2023/06/24 12:16:40;;;;;;;7.50;4.00;;;27.30;93.10;;;;;;5126562;27;20054;-58
2023/06/24 12:19:07;;;;;;;7.13;3.60;;;27.40;92.90;;;;;;5120932;27;20141;-57
2023/06/24 12:21:33;;;;;;;9.18;3.95;;;27.40;92.80;;;;;;5109924;27;20043;-57
2023/06/24 12:23:59;;;;;;;7.80;3.63;;;27.30;93.40;;;;;;5115748;28;20530;-57
2023/06/24 12:26:25;;;;;;;8.73;5.05;;;27.50;93.20;;;;;;5116171;28;20085;-58
2023/06/24 12:28:50;;;;;;;7.47;4.18;;;27.10;92.70;;;;;;5116317;28;20035;-57
2023/06/24 12:31:16;;;;;;;10.70;4.05;;;27.20;94.10;;;;;;5114958;28;20047;-57
2023/06/24 12:33:42;;;;;;;10.82;4.30;;;26.60;93.20;;;;;;5115192;28;20051;-57
2023/06/24 12:36:07;;;;;;;9.10;4.63;;;26.60;94.00;;;;;;5115435;28;20054;-57